createdAt,value
2019-05-16T00:00:19.248Z,101543.47
2019-05-16T00:02:48.147Z,101549.49
2019-05-16T00:05:18.657Z,101544.67
2019-05-16T00:07:49.218Z,101540.66
2019-05-16T00:10:18.669Z,101542.94
2019-05-16T00:12:48.641Z,101544.36
2019-05-16T00:15:18.168Z,101538.36
2019-05-16T00:17:48.806Z,101538.99
2019-05-16T00:20:19.116Z,101536.95
2019-05-16T00:22:48.405Z,101534.52
2019-05-16T00:25:17.940Z,101535.89
2019-05-16T00:27:48.019Z,101532.93
2019-05-16T00:30:18.115Z,101531.63
2019-05-16T00:32:48.119Z,101537.29
2019-05-16T00:35:18.447Z,101536.00
2019-05-16T00:37:53.067Z,101533.84
2019-05-16T00:40:21.498Z,101534.72
2019-05-16T00:42:50.017Z,101530.38
2019-05-16T00:45:18.809Z,101530.52
2019-05-16T00:47:47.942Z,101533.06
2019-05-16T00:50:18.260Z,101524.31
2019-05-16T00:52:48.714Z,101525.09
2019-05-16T00:55:17.929Z,101528.14
2019-05-16T00:57:48.385Z,101525.02
2019-05-16T01:00:18.419Z,101517.61
2019-05-16T01:02:48.566Z,101514.53
2019-05-16T01:05:19.112Z,101510.20
2019-05-16T01:07:48.103Z,101509.78
2019-05-16T01:10:18.283Z,101512.42
2019-05-16T01:12:49.646Z,101511.57
2019-05-16T01:15:18.520Z,101504.54
2019-05-16T01:17:48.386Z,101500.61
2019-05-16T01:20:19.202Z,101502.32
2019-05-16T01:22:49.038Z,101501.52
2019-05-16T01:25:19.536Z,101491.95
2019-05-16T01:27:47.850Z,101499.86
2019-05-16T01:30:18.637Z,101493.96
2019-05-16T01:32:48.992Z,101491.84
2019-05-16T01:35:18.872Z,101489.41
2019-05-16T01:37:48.770Z,101487.40
2019-05-16T01:40:18.816Z,101493.65
2019-05-16T01:42:48.999Z,101493.75
2019-05-16T01:45:18.809Z,101498.59
2019-05-16T01:47:48.202Z,101492.11
2019-05-16T01:50:18.042Z,101489.52
2019-05-16T01:52:48.688Z,101483.50
2019-05-16T01:55:18.646Z,101480.04
2019-05-16T01:57:48.115Z,101480.91
2019-05-16T02:00:23.294Z,101473.86
2019-05-16T02:02:48.776Z,101475.50
2019-05-16T02:05:18.772Z,101473.24
2019-05-16T02:07:48.033Z,101481.48
2019-05-16T02:10:18.062Z,101477.20
2019-05-16T02:12:48.808Z,101475.47
2019-05-16T02:15:18.184Z,101470.20
2019-05-16T02:17:48.520Z,101469.33
2019-05-16T02:20:18.029Z,101475.05
2019-05-16T02:22:48.201Z,101466.34
2019-05-16T02:25:18.541Z,101469.91
2019-05-16T02:27:48.840Z,101475.62
2019-05-16T02:30:21.311Z,101462.59
2019-05-16T02:32:47.777Z,101457.80
2019-05-16T02:35:16.324Z,101463.40
2019-05-16T02:37:44.785Z,101463.38
2019-05-16T02:40:16.259Z,101450.27
2019-05-16T02:42:44.686Z,101451.05
2019-05-16T02:45:13.657Z,101451.06
2019-05-16T02:47:42.950Z,101453.23
2019-05-16T02:50:12.737Z,101455.81
2019-05-16T02:52:41.757Z,101447.08
2019-05-16T02:55:11.820Z,101454.50
2019-05-16T02:57:41.550Z,101449.68
2019-05-16T03:00:12.351Z,101446.58
2019-05-16T03:02:42.139Z,101444.40
2019-05-16T03:05:12.556Z,101440.08
2019-05-16T03:07:47.347Z,101448.38
2019-05-16T03:10:14.029Z,101439.24
2019-05-16T03:12:43.842Z,101434.01
2019-05-16T03:15:12.933Z,101428.80
2019-05-16T03:17:44.367Z,101431.07
2019-05-16T03:20:14.217Z,101428.47
2019-05-16T03:22:45.089Z,101422.38
2019-05-16T03:25:13.573Z,101421.48
2019-05-16T03:27:42.068Z,101422.27
2019-05-16T03:30:15.423Z,101424.88
2019-05-16T03:32:44.679Z,101420.99
2019-05-16T03:35:16.193Z,101417.17
2019-05-16T03:37:55.067Z,101421.52
2019-05-16T03:40:17.712Z,101414.13
2019-05-16T03:42:46.140Z,101421.55
2019-05-16T03:45:14.612Z,101418.01
2019-05-16T03:47:43.224Z,101413.21
2019-05-16T03:50:14.682Z,101415.43
2019-05-16T03:52:43.822Z,101419.81
2019-05-16T03:55:12.690Z,101415.45
2019-05-16T03:57:41.873Z,101412.83
2019-05-16T04:00:12.427Z,101413.68
2019-05-16T04:02:42.050Z,101404.10
2019-05-16T04:05:11.619Z,101402.34
2019-05-16T04:07:41.742Z,101403.53
2019-05-16T04:10:11.122Z,101388.74
2019-05-16T04:12:41.818Z,101397.47
2019-05-16T04:15:11.661Z,101394.08
2019-05-16T04:17:41.167Z,101397.13
2019-05-16T04:20:12.090Z,101397.08
2019-05-16T04:22:41.048Z,101389.61
2019-05-16T04:25:11.711Z,101397.00
2019-05-16T04:27:41.579Z,101395.22
2019-05-16T04:30:11.748Z,101396.92
2019-05-16T04:32:41.890Z,101393.88
2019-05-16T04:35:11.668Z,101402.08
2019-05-16T04:37:42.159Z,101394.26
2019-05-16T04:40:12.034Z,101394.75
2019-05-16T04:42:41.950Z,101388.28
2019-05-16T04:45:12.131Z,101390.93
2019-05-16T04:47:41.520Z,101390.93
2019-05-16T04:50:11.770Z,101386.55
2019-05-16T04:52:41.830Z,101384.34
2019-05-16T04:55:13.509Z,101382.53
2019-05-16T04:57:42.573Z,101382.15
2019-05-16T05:00:11.871Z,101379.09
2019-05-16T05:02:44.606Z,101380.39
2019-05-16T05:05:21.149Z,101383.81
2019-05-16T05:07:50.905Z,101376.27
2019-05-16T05:10:22.489Z,101377.87
2019-05-16T05:12:51.715Z,101373.89
2019-05-16T05:15:21.275Z,101371.67
2019-05-16T05:17:50.334Z,101375.91
2019-05-16T05:20:21.042Z,101373.46
2019-05-16T05:22:49.972Z,101367.75
2019-05-16T05:25:20.377Z,101367.72
2019-05-16T05:27:50.279Z,101366.84
2019-05-16T05:30:19.831Z,101364.92
2019-05-16T05:32:50.245Z,101377.89
2019-05-16T05:35:20.671Z,101378.77
2019-05-16T05:37:51.571Z,101378.38
2019-05-16T05:40:20.247Z,101374.88
2019-05-16T05:42:50.503Z,101372.26
2019-05-16T05:45:20.155Z,101375.57
2019-05-16T05:47:50.544Z,101375.89
2019-05-16T05:50:20.155Z,101369.17
2019-05-16T05:52:51.093Z,101370.45
2019-05-16T05:55:19.992Z,101367.75
2019-05-16T05:57:50.771Z,101371.99
2019-05-16T06:00:21.052Z,101368.45
2019-05-16T06:02:50.832Z,101370.45
2019-05-16T06:05:20.226Z,101367.33
2019-05-16T06:07:50.953Z,101373.19
2019-05-16T06:10:19.913Z,101370.03
2019-05-16T06:12:50.175Z,101368.81
2019-05-16T06:15:20.317Z,101366.91
2019-05-16T06:17:50.911Z,101359.80
2019-05-16T06:20:20.366Z,101358.33
2019-05-16T06:22:50.906Z,101358.02
2019-05-16T06:25:22.991Z,101355.44
2019-05-16T06:27:51.187Z,101349.54
2019-05-16T06:30:21.296Z,101345.41
2019-05-16T06:32:50.230Z,101353.95
2019-05-16T06:35:20.553Z,101357.64
2019-05-16T06:37:49.960Z,101342.84
2019-05-16T06:40:20.304Z,101346.45
2019-05-16T06:42:50.940Z,101343.92
2019-05-16T06:45:20.564Z,101337.92
2019-05-16T06:47:50.384Z,101338.07
2019-05-16T06:50:20.820Z,101335.02
2019-05-16T06:52:50.183Z,101335.86
2019-05-16T06:55:20.510Z,101333.41
2019-05-16T06:57:50.320Z,101332.99
2019-05-16T07:00:21.030Z,101331.31
2019-05-16T07:02:49.925Z,101327.89
2019-05-16T07:05:20.807Z,101330.45
2019-05-16T07:07:50.963Z,101321.46
2019-05-16T07:10:20.353Z,101326.88
2019-05-16T07:12:50.364Z,101322.06
2019-05-16T07:15:20.631Z,101318.27
2019-05-16T07:17:50.664Z,101317.41
2019-05-16T07:20:20.970Z,101317.77
2019-05-16T07:22:50.312Z,101319.51
2019-05-16T07:25:20.852Z,101311.61
2019-05-16T07:27:51.047Z,101316.16
2019-05-16T07:31:23.569Z,101307.80
2019-05-16T07:34:40.827Z,101299.65
2019-05-16T07:40:36.450Z,101299.66
2019-05-16T07:43:04.983Z,101298.76
2019-05-16T07:45:33.390Z,101303.53
2019-05-16T07:48:01.849Z,101298.84
2019-05-16T07:50:30.271Z,101298.62
2019-05-16T07:52:59.962Z,101294.75
2019-05-16T07:55:30.717Z,101289.90
2019-05-16T07:57:59.631Z,101293.83
2019-05-16T08:00:48.445Z,101287.34
2019-05-16T08:03:00.022Z,101283.19
2019-05-16T08:05:30.418Z,101279.72
2019-05-16T08:08:00.017Z,101272.64
2019-05-16T08:10:38.131Z,101275.27
2019-05-16T08:13:03.319Z,101273.87
2019-05-16T08:15:30.340Z,101270.04
2019-05-16T08:18:03.161Z,101267.88
2019-05-16T08:20:31.308Z,101272.00
2019-05-16T08:23:00.838Z,101255.69
2019-05-16T08:25:41.427Z,101258.55
2019-05-16T08:28:11.686Z,101256.77
2019-05-16T08:30:41.186Z,101253.20
2019-05-16T08:33:13.538Z,101248.36
2019-05-16T08:35:41.388Z,101252.15
2019-05-16T08:38:13.598Z,101259.80
2019-05-16T08:41:01.168Z,101258.22
2019-05-16T08:43:11.740Z,101255.72
2019-05-16T08:45:41.791Z,101246.24
2019-05-16T08:48:11.493Z,101247.52
2019-05-16T08:50:42.017Z,101249.28
2019-05-16T08:53:12.897Z,101248.78
2019-05-16T08:55:43.334Z,101245.06
2019-05-16T08:58:14.798Z,101245.27
2019-05-16T09:00:42.079Z,101236.45
2019-05-16T09:03:12.302Z,101233.80
2019-05-16T09:05:42.825Z,101232.94
2019-05-16T09:08:10.922Z,101233.42
2019-05-16T09:10:49.883Z,101232.98
2019-05-16T09:13:09.589Z,101237.56
2019-05-16T09:15:38.917Z,101229.38
2019-05-16T09:18:07.742Z,101235.94
2019-05-16T09:20:37.453Z,101229.48
2019-05-16T09:23:07.366Z,101228.55
2019-05-16T09:25:36.899Z,101231.59
2019-05-16T09:28:07.469Z,101223.64
2019-05-16T09:30:37.058Z,101228.29
2019-05-16T09:33:07.130Z,101229.45
2019-05-16T09:35:37.036Z,101223.87
2019-05-16T09:38:07.196Z,101220.73
2019-05-16T09:40:38.709Z,101219.08
2019-05-16T09:43:07.574Z,101209.94
2019-05-16T09:45:38.049Z,101214.13
2019-05-16T09:48:08.057Z,101205.63
2019-05-16T09:50:37.942Z,101202.38
2019-05-16T09:53:07.253Z,101199.52
2019-05-16T09:55:37.367Z,101206.84
2019-05-16T09:58:07.301Z,101208.26
2019-05-16T10:00:37.454Z,101204.20
2019-05-16T10:03:07.153Z,101203.63
2019-05-16T10:05:37.141Z,101202.31
2019-05-16T10:08:06.882Z,101196.15
2019-05-16T10:10:36.966Z,101199.95
2019-05-16T10:13:06.832Z,101197.34
2019-05-16T10:15:37.716Z,101194.31
2019-05-16T10:18:07.589Z,101185.44
2019-05-16T10:20:36.760Z,101180.41
2019-05-16T10:23:14.382Z,101179.97
2019-05-16T10:25:37.664Z,101183.27
2019-05-16T10:28:05.760Z,101176.73
2019-05-16T10:30:34.333Z,101174.13
2019-05-16T10:33:02.794Z,101178.56
2019-05-16T10:35:31.315Z,101182.17
2019-05-16T10:37:59.946Z,101175.64
2019-05-16T10:40:28.364Z,101167.12
2019-05-16T10:42:57.922Z,101172.86
2019-05-16T10:45:27.317Z,101169.66
2019-05-16T10:47:55.929Z,101169.73
2019-05-16T10:50:24.426Z,101171.50
2019-05-16T10:53:20.540Z,101169.98
2019-05-16T10:55:23.328Z,101170.05
2019-05-16T10:57:51.896Z,101166.48
2019-05-16T11:00:41.452Z,101160.99
2019-05-16T11:02:51.068Z,101148.13
2019-05-16T11:05:30.036Z,101143.77
2019-05-16T11:07:53.479Z,101153.03
2019-05-16T11:10:22.206Z,101151.42
2019-05-16T11:12:55.224Z,101151.38
2019-05-16T11:15:21.161Z,101141.45
2019-05-16T11:17:49.616Z,101140.73
2019-05-16T11:20:20.376Z,101143.41
2019-05-16T11:22:49.040Z,101140.33
2019-05-16T11:25:25.095Z,101138.84
2019-05-16T11:27:47.767Z,101136.70
2019-05-16T11:30:18.038Z,101138.95
2019-05-16T11:32:47.830Z,101135.06
2019-05-16T11:35:17.506Z,101119.75
2019-05-16T11:37:47.194Z,101130.94
2019-05-16T11:40:17.849Z,101108.74
2019-05-16T11:42:48.777Z,101109.97
2019-05-16T11:45:16.980Z,101096.78
2019-05-16T11:47:47.114Z,101100.70
2019-05-16T11:50:17.564Z,101103.32
2019-05-16T11:52:47.756Z,101094.78
2019-05-16T11:55:16.635Z,101098.02
2019-05-16T11:57:47.346Z,101085.52
2019-05-16T12:00:17.806Z,101083.55
2019-05-16T12:02:47.794Z,101065.80
2019-05-16T12:05:17.325Z,101064.55
2019-05-16T12:07:48.385Z,101074.19
2019-05-16T12:10:16.502Z,101070.64
2019-05-16T12:12:44.989Z,101063.63
2019-05-16T12:15:16.714Z,101062.52
2019-05-16T12:17:43.928Z,101061.49
2019-05-16T12:20:12.864Z,101047.69
2019-05-16T12:22:41.300Z,101045.34
2019-05-16T12:25:10.164Z,101039.59
2019-05-16T12:27:42.356Z,101038.75
2019-05-16T12:30:13.648Z,101042.14
2019-05-16T12:32:39.811Z,101041.45
2019-05-16T12:35:08.293Z,101038.55
2019-05-16T12:37:37.401Z,101025.95
2019-05-16T12:40:08.543Z,101028.83
2019-05-16T12:42:37.047Z,101012.27
2019-05-16T12:45:07.960Z,101022.62
2019-05-16T12:47:37.494Z,101009.31
2019-05-16T12:50:10.885Z,101014.27
2019-05-16T12:52:39.901Z,101004.69
2019-05-16T12:55:08.800Z,100991.30
2019-05-16T12:57:38.281Z,100998.53
2019-05-16T13:00:14.494Z,100992.65
2019-05-16T13:02:38.690Z,100991.70
2019-05-16T13:05:07.735Z,100980.64
2019-05-16T13:07:37.736Z,100969.23
2019-05-16T13:10:07.943Z,100977.03
2019-05-16T13:12:37.746Z,100971.86
2019-05-16T13:15:07.508Z,100965.10
2019-05-16T13:17:37.228Z,100964.67
2019-05-16T13:20:07.990Z,100962.87
2019-05-16T13:22:38.531Z,100954.11
2019-05-16T13:25:08.105Z,100946.14
2019-05-16T13:27:37.563Z,100941.09
2019-05-16T13:30:11.131Z,100940.20
2019-05-16T13:32:39.629Z,100931.02
2019-05-16T13:35:08.421Z,100924.63
2019-05-16T13:37:36.869Z,100919.55
2019-05-16T13:40:07.986Z,100924.03
2019-05-16T13:42:36.949Z,100915.20
2019-05-16T13:45:08.072Z,100911.95
2019-05-16T13:47:37.566Z,100907.02
2019-05-16T13:50:11.971Z,100911.05
2019-05-16T13:52:38.034Z,100901.61
2019-05-16T13:55:10.514Z,100905.95
2019-05-16T13:57:40.227Z,100906.44
2019-05-16T14:00:10.030Z,100904.05
2019-05-16T14:02:40.254Z,100905.59
2019-05-16T14:05:09.789Z,100902.39
2019-05-16T14:07:38.271Z,100896.91
2019-05-16T14:10:10.404Z,100889.75
2019-05-16T14:12:39.107Z,100892.50
2019-05-16T14:15:08.632Z,100886.52
2019-05-16T14:17:37.447Z,100881.16
2019-05-16T14:20:14.167Z,100873.38
2019-05-16T14:22:37.359Z,100871.72
2019-05-16T14:25:07.310Z,100877.66
2019-05-16T14:27:38.259Z,100875.94
2019-05-16T14:30:08.597Z,100865.30
2019-05-16T14:32:41.039Z,100864.73
2019-05-16T14:35:08.858Z,100857.34
2019-05-16T14:37:38.250Z,100850.72
2019-05-16T14:40:07.961Z,100857.95
2019-05-16T14:42:38.698Z,100851.61
2019-05-16T14:45:17.410Z,100843.27
2019-05-16T14:47:47.517Z,100846.45
2019-05-16T14:50:17.012Z,100838.10
2019-05-16T14:52:47.443Z,100833.51
2019-05-16T14:55:18.491Z,100841.54
2019-05-16T14:57:47.279Z,100832.41
2019-05-16T15:00:18.458Z,100829.31
2019-05-16T15:02:50.812Z,100825.21
2019-05-16T15:05:20.283Z,100830.37
2019-05-16T15:07:48.805Z,100811.44
2019-05-16T15:10:18.164Z,100823.94
2019-05-16T15:12:47.034Z,100818.10
2019-05-16T15:15:23.371Z,100814.31
2019-05-16T15:17:48.299Z,100817.53
2019-05-16T15:20:18.183Z,100808.89
2019-05-16T15:22:47.325Z,100819.80
2019-05-16T15:25:17.491Z,100813.59
2019-05-16T15:27:47.869Z,100816.83
2019-05-16T15:30:18.453Z,100813.63
2019-05-16T15:32:49.441Z,100812.45
2019-05-16T15:35:19.088Z,100816.85
2019-05-16T15:37:48.413Z,100814.06
2019-05-16T15:40:17.863Z,100817.72
2019-05-16T15:42:46.500Z,100822.95
2019-05-16T15:45:19.254Z,100820.33
2019-05-16T15:47:46.369Z,100809.56
2019-05-16T15:50:17.941Z,100802.23
2019-05-16T15:52:45.657Z,100804.73
2019-05-16T15:55:14.272Z,100798.03
2019-05-16T15:57:42.711Z,100797.70
2019-05-16T16:00:11.797Z,100796.24
2019-05-16T16:02:40.235Z,100795.61
2019-05-16T16:05:09.991Z,100797.91
2019-05-16T16:07:38.439Z,100794.88
2019-05-16T16:10:07.877Z,100800.42
2019-05-16T16:12:37.716Z,100797.95
2019-05-16T16:15:07.977Z,100795.08
2019-05-16T16:20:13.831Z,100788.05
2019-05-16T16:22:42.288Z,100791.88
2019-05-16T16:25:11.152Z,100784.36
2019-05-16T16:27:39.598Z,100781.06
2019-05-16T16:30:08.489Z,100777.20
2019-05-16T16:32:38.106Z,100774.20
2019-05-16T16:35:07.922Z,100769.06
2019-05-16T16:37:37.812Z,100767.44
2019-05-16T16:40:11.421Z,100762.53
2019-05-16T16:42:37.537Z,100756.36
2019-05-16T16:45:07.471Z,100759.34
2019-05-16T16:47:37.673Z,100753.27
2019-05-16T16:50:10.923Z,100753.41
2019-05-16T16:52:39.356Z,100749.89
2019-05-16T16:55:09.815Z,100742.61
2019-05-16T16:57:41.040Z,100739.16
2019-05-16T17:00:12.403Z,100741.36
2019-05-16T17:02:40.904Z,100738.94
2019-05-16T17:05:12.616Z,100737.22
2019-05-16T17:07:39.836Z,100731.83
2019-05-16T17:10:09.021Z,100733.02
2019-05-16T17:12:41.485Z,100727.88
2019-05-16T17:15:09.074Z,100723.11
2019-05-16T17:17:37.957Z,100718.52
2019-05-16T17:20:07.913Z,100716.96
2019-05-16T17:22:37.580Z,100711.03
2019-05-16T17:25:08.269Z,100712.20
2019-05-16T17:27:38.239Z,100703.66
2019-05-16T17:30:16.909Z,100697.58
2019-05-16T17:32:44.922Z,100698.05
2019-05-16T17:35:18.358Z,100691.17
2019-05-16T17:37:46.666Z,100688.07
2019-05-16T17:40:19.713Z,100691.06
2019-05-16T17:42:48.261Z,100689.36
2019-05-16T17:45:18.066Z,100678.63
2019-05-16T17:47:46.829Z,100673.09
2019-05-16T17:50:18.522Z,100668.67
2019-05-16T17:52:47.652Z,100664.85
2019-05-16T17:55:17.626Z,100663.44
2019-05-16T17:57:46.515Z,100662.28
2019-05-16T18:00:25.230Z,100665.48
2019-05-16T18:02:48.932Z,100656.45
2019-05-16T18:05:17.597Z,100655.28
2019-05-16T18:07:47.384Z,100654.97
2019-05-16T18:10:17.155Z,100654.66
2019-05-16T18:12:47.689Z,100654.52
2019-05-16T18:15:18.843Z,100654.34
2019-05-16T18:17:47.284Z,100651.84
2019-05-16T18:20:15.886Z,100647.49
2019-05-16T18:22:47.322Z,100648.39
2019-05-16T18:25:16.471Z,100644.93
2019-05-16T18:27:45.055Z,100648.99
2019-05-16T18:30:16.700Z,100640.45
2019-05-16T18:32:44.928Z,100641.81
2019-05-16T18:35:16.688Z,100637.70
2019-05-16T18:37:43.632Z,100643.41
2019-05-16T18:40:13.197Z,100641.38
2019-05-16T18:42:41.653Z,100643.13
2019-05-16T18:45:10.404Z,100647.23
2019-05-16T18:47:38.993Z,100645.23
2019-05-16T18:50:08.803Z,100641.52
2019-05-16T18:52:37.814Z,100643.42
2019-05-16T18:55:08.721Z,100639.40
2019-05-16T18:57:37.854Z,100636.84
2019-05-16T19:00:10.626Z,100632.66
2019-05-16T19:02:38.751Z,100635.44
2019-05-16T19:05:09.085Z,100633.92
2019-05-16T19:07:37.576Z,100627.81
2019-05-16T19:10:07.870Z,100626.67
2019-05-16T19:12:37.139Z,100623.55
2019-05-16T19:15:13.745Z,100625.07
2019-05-16T19:17:47.894Z,100623.02
2019-05-16T19:20:17.389Z,100622.98
2019-05-16T19:22:45.854Z,100631.14
2019-05-16T19:25:14.663Z,100621.42
2019-05-16T19:27:46.316Z,100622.00
2019-05-16T19:30:14.821Z,100622.17
2019-05-16T19:32:43.236Z,100520.74
2019-05-16T19:35:11.793Z,100623.26
2019-05-16T19:37:40.789Z,100627.33
2019-05-16T19:40:17.182Z,100629.06
2019-05-16T19:42:47.175Z,100631.63
2019-05-16T19:45:17.154Z,100523.25
2019-05-16T19:47:46.995Z,100630.96
2019-05-16T19:50:16.044Z,100630.06
2019-05-16T19:52:47.011Z,100626.90
2019-05-16T19:55:18.336Z,100629.67
2019-05-16T19:57:46.757Z,100631.77
2019-05-16T20:00:17.333Z,100625.25
2019-05-16T20:02:47.326Z,100625.02
2019-05-16T20:05:19.334Z,100626.61
2019-05-16T20:07:47.864Z,100526.36
2019-05-16T20:10:16.998Z,100629.12
2019-05-16T20:12:46.276Z,100627.55
2019-05-16T20:15:16.540Z,100634.63
2019-05-16T20:17:52.013Z,100633.36
2019-05-16T20:20:18.613Z,100632.63
2019-05-16T20:22:47.472Z,100629.91
2019-05-16T20:25:16.478Z,100635.59
2019-05-16T20:27:47.132Z,100633.73
2019-05-16T20:30:17.199Z,100633.50
2019-05-16T20:32:45.751Z,100629.65
2019-05-16T20:35:14.455Z,100624.39
2019-05-16T20:37:42.871Z,100627.94
2019-05-16T20:40:12.586Z,100632.56
2019-05-16T20:42:41.220Z,100627.88
2019-05-16T20:45:10.103Z,100637.22
2019-05-16T20:47:38.632Z,100639.02
2019-05-16T20:50:09.428Z,100630.08
2019-05-16T20:52:38.257Z,100641.41
2019-05-16T20:55:07.768Z,100632.74
2019-05-16T20:57:37.618Z,100633.26
2019-05-16T21:00:10.645Z,100635.45
2019-05-16T21:02:57.544Z,100627.99
2019-05-16T21:05:26.845Z,100631.54
2019-05-16T21:07:57.006Z,100629.93
2019-05-16T21:10:27.433Z,100631.31
2019-05-16T21:12:57.396Z,100630.63
2019-05-16T21:15:26.395Z,100629.09
2019-05-16T21:17:56.723Z,100631.05
2019-05-16T21:20:27.027Z,100619.58
2019-05-16T21:22:56.499Z,100622.12
2019-05-16T21:25:26.395Z,100622.63
2019-05-16T21:27:57.193Z,100616.87
2019-05-16T21:30:27.229Z,100622.84
2019-05-16T21:32:56.518Z,100618.68
2019-05-16T21:35:27.026Z,100610.19
2019-05-16T21:37:55.366Z,100606.52
2019-05-16T21:40:26.286Z,100601.00
2019-05-16T21:42:58.476Z,100595.92
2019-05-16T21:45:28.316Z,100603.11
2019-05-16T21:47:56.593Z,100598.38
2019-05-16T21:50:24.642Z,100604.55
2019-05-16T21:52:53.097Z,100599.28
2019-05-16T21:55:21.692Z,100601.41
2019-05-16T21:57:50.132Z,100601.20
2019-05-16T22:00:37.459Z,100592.52
2019-05-16T22:03:05.916Z,100589.05
2019-05-16T22:05:36.861Z,100582.69
2019-05-16T22:08:11.924Z,100578.84
2019-05-16T22:10:40.640Z,100578.44
2019-05-16T22:13:09.055Z,100572.89
2019-05-16T22:15:37.592Z,100574.30
2019-05-16T22:18:07.270Z,100565.30
2019-05-16T22:20:36.159Z,100568.94
2019-05-16T22:23:06.780Z,100564.53
2019-05-16T22:25:34.974Z,100559.04
2019-05-16T22:28:03.858Z,100558.94
2019-05-16T22:30:32.289Z,100550.23
2019-05-16T22:33:00.726Z,100553.53
2019-05-16T22:35:29.198Z,100549.43
2019-05-16T22:37:59.449Z,100547.92
2019-05-16T22:40:27.989Z,100543.77
2019-05-16T22:42:57.558Z,100540.67
2019-05-16T22:45:27.009Z,100536.05
2019-05-16T22:47:55.698Z,100531.80
2019-05-16T22:50:26.911Z,100533.05
2019-05-16T22:52:56.824Z,100525.78
2019-05-16T22:55:26.451Z,100525.64
2019-05-16T22:57:56.516Z,100525.84
2019-05-16T23:00:32.754Z,100524.39
2019-05-16T23:03:02.496Z,100522.84
2019-05-16T23:05:30.945Z,100513.98
2019-05-16T23:08:04.916Z,100511.16
2019-05-16T23:10:29.603Z,100508.23
2019-05-16T23:12:58.077Z,100502.73
2019-05-16T23:15:26.725Z,100509.27
2019-05-16T23:17:57.165Z,100505.64
2019-05-16T23:20:27.533Z,100490.17
2019-05-16T23:22:56.239Z,100494.17
2019-05-16T23:25:24.944Z,100490.13
2019-05-16T23:27:53.411Z,100490.58
2019-05-16T23:30:21.983Z,100489.77
2019-05-16T23:32:50.463Z,100483.00
2019-05-16T23:35:18.988Z,100483.81
2019-05-16T23:37:47.440Z,100478.75
2019-05-16T23:40:17.320Z,100479.33
2019-05-16T23:42:46.478Z,100473.73
2019-05-16T23:45:17.114Z,100479.62
2019-05-16T23:47:47.134Z,100470.38
2019-05-16T23:50:17.090Z,100472.92
2019-05-16T23:52:47.350Z,100469.66
2019-05-16T23:55:17.318Z,100466.02
2019-05-16T23:57:46.740Z,100460.37
